Orlando, Arkansas
Current Conditions -  °F | °C
As of 7:53 AM on Sunday 25 Jan 2015 (Local Time) from KLLQ Reporting Station
Clear Clear  
Wind Chill: 39°   Ceiling: Unl
Heat Index: 44°   Visibility: 10mi
Dew Point: 35°   Wind: 9mph
Humidity: 71%   Direction: 230°SW
Pressure: 29.82"   Gusts: NA
Location:  33.7656°N, 92.1916°W
Report Text: KLLQ 251353Z AUTO 23008KT 10SM CLR 07/02 A2982 RMK AO2 SLP098 T00670017
Loading
Personal Weather Stations






























Interactive Weather Map New forecast layout! Learn more

10-Day Weather Forecast

Advertisements
Track Severe Weather on mobile